createdAt,value
2019-03-26T00:02:25.874Z,91.05
2019-03-26T00:07:31.841Z,91.09
2019-03-26T00:12:37.972Z,90.01
2019-03-26T00:17:43.823Z,90.11
2019-03-26T00:22:49.907Z,90.25
2019-03-26T00:27:55.796Z,89.54
2019-03-26T00:33:01.934Z,89.81
2019-03-26T00:38:07.891Z,89.87
2019-03-26T00:43:13.834Z,89.99
2019-03-26T00:48:19.836Z,89.53
2019-03-26T00:53:25.777Z,89.01
2019-03-26T00:58:31.877Z,89.45
2019-03-26T01:03:37.927Z,89.43
2019-03-26T01:08:43.869Z,88.94
2019-03-26T01:13:49.971Z,88.66
2019-03-26T01:18:55.901Z,88.70
2019-03-26T01:24:01.791Z,88.94
2019-03-26T01:29:08.438Z,88.97
2019-03-26T01:34:14.317Z,88.70
2019-03-26T01:39:20.207Z,89.16
2019-03-26T01:44:26.056Z,89.12
2019-03-26T01:49:31.976Z,88.68
2019-03-26T01:54:37.792Z,88.85
2019-03-26T01:59:43.842Z,88.61
2019-03-26T02:04:59.812Z,88.69
2019-03-26T02:09:57.369Z,88.49
2019-03-26T02:15:03.285Z,88.31
2019-03-26T02:20:09.238Z,88.57
2019-03-26T02:25:15.137Z,88.28
2019-03-26T02:30:21.035Z,88.51
2019-03-26T02:35:26.895Z,88.81
2019-03-26T02:40:32.737Z,88.29
2019-03-26T02:45:38.544Z,87.78
2019-03-26T02:50:44.521Z,87.93
2019-03-26T02:55:50.473Z,87.83
2019-03-26T03:00:56.268Z,87.73
2019-03-26T03:06:02.124Z,87.76
2019-03-26T03:11:08.373Z,87.81
2019-03-26T03:16:14.456Z,87.89
2019-03-26T03:21:20.494Z,88.08
2019-03-26T03:26:26.571Z,87.94
2019-03-26T03:31:32.403Z,87.82
2019-03-26T03:36:38.331Z,87.73
2019-03-26T03:41:44.113Z,88.22
2019-03-26T03:46:51.026Z,88.61
2019-03-26T03:51:58.699Z,88.42
2019-03-26T03:57:06.633Z,88.11
2019-03-26T04:02:12.878Z,87.98
2019-03-26T04:07:18.808Z,87.67
2019-03-26T04:12:24.753Z,87.76
2019-03-26T04:17:30.841Z,87.75
2019-03-26T04:22:36.673Z,87.66
2019-03-26T04:27:42.684Z,87.67
2019-03-26T04:32:48.463Z,87.43
2019-03-26T04:37:54.426Z,87.10
2019-03-26T04:43:00.350Z,86.34
2019-03-26T04:48:06.347Z,86.46
2019-03-26T04:53:12.231Z,86.54
2019-03-26T04:58:18.136Z,86.54
2019-03-26T05:03:24.026Z,87.06
2019-03-26T05:08:30.342Z,86.59
2019-03-26T05:13:36.401Z,86.38
2019-03-26T05:18:42.494Z,85.94
2019-03-26T05:23:48.317Z,85.49
2019-03-26T05:28:54.226Z,85.96
2019-03-26T05:34:00.196Z,86.28
2019-03-26T05:39:07.277Z,85.60
2019-03-26T05:44:13.098Z,86.07
2019-03-26T05:49:19.152Z,85.65
2019-03-26T05:54:25.162Z,86.12
2019-03-26T05:59:30.996Z,86.09
2019-03-26T06:04:36.876Z,86.09
2019-03-26T06:09:42.733Z,86.02
2019-03-26T06:14:48.652Z,86.13
2019-03-26T06:19:54.792Z,86.06
2019-03-26T06:25:00.976Z,86.36
2019-03-26T06:30:08.071Z,85.88
2019-03-26T06:35:14.041Z,85.41
2019-03-26T06:40:20.021Z,86.03
2019-03-26T06:45:26.229Z,86.23
2019-03-26T06:50:32.165Z,86.33
2019-03-26T06:55:38.013Z,86.48
2019-03-26T07:00:43.976Z,87.34
2019-03-26T07:05:50.051Z,87.60
2019-03-26T07:10:56.032Z,88.60
2019-03-26T07:16:02.128Z,89.08
2019-03-26T07:21:08.006Z,88.88
2019-03-26T07:26:14.077Z,87.68
2019-03-26T07:31:20.002Z,86.04
2019-03-26T07:36:25.912Z,87.37
2019-03-26T07:41:32.150Z,87.17
2019-03-26T07:46:38.431Z,85.02
2019-03-26T07:51:45.014Z,83.59
2019-03-26T07:56:50.901Z,82.98
2019-03-26T08:01:56.802Z,83.33
2019-03-26T08:07:02.733Z,82.45
2019-03-26T08:12:08.906Z,81.73
2019-03-26T08:17:14.881Z,79.98
2019-03-26T08:22:20.837Z,78.69
2019-03-26T08:27:26.763Z,77.97
2019-03-26T08:32:33.006Z,77.25
2019-03-26T08:37:39.539Z,76.87
2019-03-26T08:42:47.297Z,76.50
2019-03-26T08:47:53.742Z,76.87
2019-03-26T08:52:59.857Z,76.44
2019-03-26T08:58:05.866Z,77.49
2019-03-26T09:03:11.847Z,78.36
2019-03-26T09:08:25.172Z,78.80
2019-03-26T09:13:25.705Z,78.96
2019-03-26T09:18:31.752Z,76.00
2019-03-26T09:23:37.743Z,70.89
2019-03-26T09:28:43.587Z,63.01
2019-03-26T09:33:49.481Z,55.27
2019-03-26T09:38:55.364Z,50.86
2019-03-26T09:44:01.182Z,50.79
2019-03-26T09:49:07.571Z,48.52
2019-03-26T09:54:13.440Z,46.67
2019-03-26T09:59:19.558Z,45.75
2019-03-26T10:04:26.367Z,44.14
2019-03-26T10:09:32.218Z,43.75
2019-03-26T10:14:38.377Z,42.28
2019-03-26T10:19:44.347Z,41.06
2019-03-26T10:24:50.566Z,39.29
2019-03-26T10:29:56.837Z,39.47
2019-03-26T10:35:02.881Z,40.68
2019-03-26T10:40:10.303Z,39.20
2019-03-26T10:45:16.358Z,40.35
2019-03-26T10:50:22.609Z,38.63
2019-03-26T10:55:28.883Z,39.72
2019-03-26T11:00:34.937Z,41.02
2019-03-26T11:05:41.153Z,42.05
2019-03-26T11:10:47.452Z,40.82
2019-03-26T11:15:53.351Z,38.35
2019-03-26T11:21:03.319Z,40.03
2019-03-26T11:26:06.912Z,40.00
2019-03-26T11:31:13.358Z,42.29
2019-03-26T11:36:19.381Z,43.58
2019-03-26T11:41:25.517Z,43.44
2019-03-26T11:46:31.547Z,41.13
2019-03-26T11:51:37.833Z,41.94
2019-03-26T11:56:43.673Z,44.46
2019-03-26T12:01:52.334Z,43.58
2019-03-26T12:06:57.249Z,42.53
2019-03-26T12:12:03.178Z,40.18
2019-03-26T12:17:10.084Z,37.20
2019-03-26T12:22:18.763Z,39.68
2019-03-26T12:27:24.878Z,40.31
2019-03-26T12:32:31.898Z,41.05
2019-03-26T12:37:38.355Z,37.86
2019-03-26T12:42:44.820Z,42.26
2019-03-26T12:47:52.112Z,43.42
2019-03-26T12:52:58.347Z,42.03
2019-03-26T12:58:06.227Z,43.98
2019-03-26T13:03:12.383Z,38.27
2019-03-26T13:08:18.830Z,40.57
2019-03-26T13:13:24.993Z,39.95
2019-03-26T13:18:31.142Z,41.72
2019-03-26T13:23:37.492Z,44.98
2019-03-26T13:28:44.587Z,44.26
2019-03-26T13:33:50.506Z,42.96
2019-03-26T13:38:56.685Z,44.82
2019-03-26T13:44:04.382Z,45.92
2019-03-26T13:49:10.303Z,43.88
2019-03-26T13:54:16.273Z,49.09
2019-03-26T13:59:24.972Z,50.05
2019-03-26T14:04:31.377Z,49.44
2019-03-26T14:09:38.549Z,52.98
2019-03-26T14:14:44.475Z,52.35
2019-03-26T14:19:50.397Z,55.41
2019-03-26T14:24:56.698Z,55.05
2019-03-26T14:30:03.023Z,56.83
2019-03-26T14:35:10.742Z,55.96
2019-03-26T14:40:17.068Z,53.57
2019-03-26T14:45:23.058Z,53.57
2019-03-26T14:50:30.123Z,52.21
2019-03-26T14:55:36.162Z,53.61
2019-03-26T15:00:42.209Z,55.87
2019-03-26T15:05:50.838Z,55.83
2019-03-26T15:11:07.545Z,58.27
2019-03-26T15:16:05.087Z,58.87
2019-03-26T15:21:10.987Z,59.76
2019-03-26T15:26:18.439Z,58.02
2019-03-26T15:31:24.441Z,58.35
2019-03-26T15:36:30.482Z,59.38
2019-03-26T15:41:36.407Z,58.28
2019-03-26T15:46:42.289Z,58.95
2019-03-26T15:51:48.432Z,60.49
2019-03-26T15:56:54.425Z,60.79
2019-03-26T16:02:00.689Z,60.31
2019-03-26T16:07:07.004Z,62.78
2019-03-26T16:12:13.554Z,63.74
2019-03-26T16:17:19.536Z,64.36
2019-03-26T16:22:25.609Z,66.17
2019-03-26T16:27:31.792Z,65.90
2019-03-26T16:32:38.011Z,66.17
2019-03-26T16:37:47.063Z,65.82
2019-03-26T16:42:54.254Z,65.52
2019-03-26T16:48:00.371Z,65.79
2019-03-26T16:53:07.409Z,66.30
2019-03-26T16:58:13.490Z,67.53
2019-03-26T17:03:30.688Z,68.68
2019-03-26T17:08:30.711Z,68.99
2019-03-26T17:13:36.791Z,69.89
2019-03-26T17:18:43.555Z,70.12
2019-03-26T17:23:49.611Z,71.32
2019-03-26T17:28:55.872Z,72.43
2019-03-26T17:34:02.630Z,73.77
2019-03-26T17:39:10.045Z,74.02
2019-03-26T17:44:16.045Z,74.79
2019-03-26T17:49:21.973Z,76.28
2019-03-26T17:54:28.193Z,77.11
2019-03-26T17:59:34.211Z,77.34
2019-03-26T18:04:43.634Z,78.60
2019-03-26T18:09:49.646Z,79.16
2019-03-26T18:14:55.738Z,79.23
2019-03-26T18:20:02.198Z,79.92
2019-03-26T18:25:08.757Z,79.77
2019-03-26T18:30:14.991Z,78.96
2019-03-26T18:35:21.056Z,79.21
2019-03-26T18:40:27.091Z,79.10
2019-03-26T18:45:33.451Z,79.58
2019-03-26T18:50:39.371Z,79.14
2019-03-26T18:55:45.627Z,78.84
2019-03-26T19:00:55.650Z,78.73
2019-03-26T19:06:01.970Z,79.41
2019-03-26T19:11:08.147Z,80.17
2019-03-26T19:16:14.681Z,80.52
2019-03-26T19:21:20.978Z,81.67
2019-03-26T19:26:27.451Z,82.51
2019-03-26T19:31:33.531Z,82.50
2019-03-26T19:36:40.092Z,82.66
2019-03-26T19:41:46.276Z,83.19
2019-03-26T19:46:52.353Z,83.25
2019-03-26T19:57:15.943Z,84.27
2019-03-26T20:02:22.166Z,84.61
2019-03-26T20:07:28.245Z,84.97
2019-03-26T20:12:34.261Z,84.92
2019-03-26T20:17:40.161Z,84.35
2019-03-26T20:22:46.196Z,84.61
2019-03-26T20:27:52.282Z,84.61
2019-03-26T20:32:58.583Z,84.73
2019-03-26T20:38:04.555Z,84.61
2019-03-26T20:43:10.433Z,84.73
2019-03-26T20:48:16.276Z,84.20
2019-03-26T20:53:22.431Z,84.85
2019-03-26T20:58:28.583Z,85.05
2019-03-26T21:03:34.667Z,84.62
2019-03-26T21:08:40.501Z,84.79
2019-03-26T21:13:51.086Z,84.83
2019-03-26T21:18:57.486Z,85.06
2019-03-26T21:24:05.012Z,85.19
2019-03-26T21:29:10.956Z,85.14
2019-03-26T21:34:29.885Z,85.43
2019-03-26T21:39:24.841Z,85.27
2019-03-26T21:44:30.686Z,85.07
2019-03-26T21:49:36.891Z,85.61
2019-03-26T21:54:42.871Z,85.68
2019-03-26T21:59:49.051Z,85.67
2019-03-26T22:04:55.462Z,85.56
2019-03-26T22:10:01.716Z,85.91
2019-03-26T22:15:12.053Z,86.14
2019-03-26T22:20:18.262Z,86.12
2019-03-26T22:25:24.076Z,85.91
2019-03-26T22:30:31.217Z,85.83
2019-03-26T22:35:37.190Z,86.00
2019-03-26T22:40:43.108Z,85.98
2019-03-26T22:45:49.225Z,86.15
2019-03-26T22:50:54.998Z,86.55
2019-03-26T22:56:01.257Z,86.98
2019-03-26T23:01:07.330Z,87.45
2019-03-26T23:06:13.315Z,87.39
2019-03-26T23:11:19.311Z,87.17
2019-03-26T23:16:25.396Z,86.86
2019-03-26T23:21:31.263Z,86.75
2019-03-26T23:26:37.330Z,86.56
2019-03-26T23:31:43.298Z,86.85
2019-03-26T23:36:49.260Z,86.74
2019-03-26T23:41:55.163Z,86.86
2019-03-26T23:47:01.262Z,86.89
2019-03-26T23:52:08.008Z,86.87
2019-03-26T23:57:15.986Z,86.87
